sensor_id;sensor_type;location;lat;lon;timestamp;P1;durP1;ratioP1;P2;durP2;ratioP2
57609;SDS011;43435;46.186;9.024;2022-12-29T07:52:17;5.32;;;3.05;;
57609;SDS011;43435;46.186;9.024;2022-12-29T07:54:42;5.07;;;3.47;;
57609;SDS011;43435;46.186;9.024;2022-12-29T07:57:07;7.50;;;4.00;;
57609;SDS011;43435;46.186;9.024;2022-12-29T07:59:33;4.47;;;3.80;;
57609;SDS011;43435;46.186;9.024;2022-12-29T08:01:58;6.18;;;3.95;;
57609;SDS011;43435;46.186;9.024;2022-12-29T08:04:24;6.75;;;3.83;;
57609;SDS011;43435;46.186;9.024;2022-12-29T08:06:49;7.90;;;4.72;;
57609;SDS011;43435;46.186;9.024;2022-12-29T08:09:15;6.60;;;4.30;;
57609;SDS011;43435;46.186;9.024;2022-12-29T08:11:40;8.88;;;4.38;;
57609;SDS011;43435;46.186;9.024;2022-12-29T08:14:06;7.47;;;4.47;;
57609;SDS011;43435;46.186;9.024;2022-12-29T08:16:31;6.80;;;4.32;;
57609;SDS011;43435;46.186;9.024;2022-12-29T08:18:57;8.55;;;4.47;;
57609;SDS011;43435;46.186;9.024;2022-12-29T08:21:23;7.35;;;4.10;;
57609;SDS011;43435;46.186;9.024;2022-12-29T08:23:49;6.78;;;4.10;;
57609;SDS011;43435;46.186;9.024;2022-12-29T08:26:14;7.65;;;4.63;;
57609;SDS011;43435;46.186;9.024;2022-12-29T08:28:39;8.48;;;6.03;;
57609;SDS011;43435;46.186;9.024;2022-12-29T08:31:05;10.35;;;6.10;;
57609;SDS011;43435;46.186;9.024;2022-12-29T08:33:30;6.72;;;4.88;;
57609;SDS011;43435;46.186;9.024;2022-12-29T17:39:12;7.28;;;3.83;;
57609;SDS011;43435;46.186;9.024;2022-12-29T17:41:37;7.90;;;4.38;;
57609;SDS011;43435;46.186;9.024;2022-12-29T17:44:04;8.18;;;4.18;;
57609;SDS011;43435;46.186;9.024;2022-12-29T17:46:30;7.80;;;4.10;;
57609;SDS011;43435;46.186;9.024;2022-12-29T17:48:55;5.32;;;3.88;;
57609;SDS011;43435;46.186;9.024;2022-12-29T17:51:21;6.03;;;3.92;;
57609;SDS011;43435;46.186;9.024;2022-12-29T17:53:46;8.65;;;3.90;;
57609;SDS011;43435;46.186;9.024;2022-12-29T17:56:13;7.13;;;3.95;;
57609;SDS011;43435;46.186;9.024;2022-12-29T17:58:38;6.18;;;3.60;;
57609;SDS011;43435;46.186;9.024;2022-12-29T18:01:03;9.63;;;4.70;;
57609;SDS011;43435;46.186;9.024;2022-12-29T18:03:31;19.52;;;10.70;;
57609;SDS011;43435;46.186;9.024;2022-12-29T18:05:58;18.42;;;10.30;;
57609;SDS011;43435;46.186;9.024;2022-12-29T18:08:24;16.00;;;8.98;;
57609;SDS011;43435;46.186;9.024;2022-12-29T18:10:50;15.23;;;7.72;;
57609;SDS011;43435;46.186;9.024;2022-12-29T18:13:22;12.13;;;7.07;;
57609;SDS011;43435;46.186;9.024;2022-12-29T18:15:49;11.00;;;6.50;;
57609;SDS011;43435;46.186;9.024;2022-12-29T18:18:17;10.93;;;6.78;;
57609;SDS011;43435;46.186;9.024;2022-12-29T18:20:45;12.82;;;7.22;;
57609;SDS011;43435;46.186;9.024;2022-12-29T18:23:17;12.02;;;6.60;;
57609;SDS011;43435;46.186;9.024;2022-12-29T18:28:17;11.55;;;6.65;;
57609;SDS011;43435;46.186;9.024;2022-12-29T18:30:42;11.50;;;6.35;;
57609;SDS011;43435;46.186;9.024;2022-12-29T18:33:12;10.07;;;6.45;;
57609;SDS011;43435;46.186;9.024;2022-12-29T18:35:45;9.93;;;5.88;;
57609;SDS011;43435;46.186;9.024;2022-12-29T18:38:15;11.25;;;6.90;;
57609;SDS011;43435;46.186;9.024;2022-12-29T18:40:40;11.43;;;6.47;;
57609;SDS011;43435;46.186;9.024;2022-12-29T18:43:06;9.48;;;6.57;;
57609;SDS011;43435;46.186;9.024;2022-12-29T18:45:31;10.00;;;5.75;;
57609;SDS011;43435;46.186;9.024;2022-12-29T18:47:58;11.38;;;6.22;;
57609;SDS011;43435;46.186;9.024;2022-12-29T18:50:24;20.67;;;10.18;;
57609;SDS011;43435;46.186;9.024;2022-12-29T18:52:49;13.85;;;7.55;;
57609;SDS011;43435;46.186;9.024;2022-12-29T18:55:17;15.90;;;8.88;;
57609;SDS011;43435;46.186;9.024;2022-12-29T18:57:43;12.38;;;7.85;;
57609;SDS011;43435;46.186;9.024;2022-12-29T19:00:10;14.98;;;7.95;;
57609;SDS011;43435;46.186;9.024;2022-12-29T19:02:36;14.45;;;8.43;;
57609;SDS011;43435;46.186;9.024;2022-12-29T19:05:02;15.75;;;8.30;;
57609;SDS011;43435;46.186;9.024;2022-12-29T19:07:28;15.20;;;8.55;;
57609;SDS011;43435;46.186;9.024;2022-12-29T19:09:53;18.15;;;8.85;;
57609;SDS011;43435;46.186;9.024;2022-12-29T19:12:19;15.10;;;8.10;;
57609;SDS011;43435;46.186;9.024;2022-12-29T19:14:45;11.88;;;6.93;;
57609;SDS011;43435;46.186;9.024;2022-12-29T19:17:10;12.80;;;6.88;;
57609;SDS011;43435;46.186;9.024;2022-12-29T19:19:36;14.00;;;7.55;;
57609;SDS011;43435;46.186;9.024;2022-12-29T19:22:01;11.63;;;7.00;;
57609;SDS011;43435;46.186;9.024;2022-12-29T19:24:26;11.23;;;6.75;;
57609;SDS011;43435;46.186;9.024;2022-12-29T19:26:52;12.65;;;7.30;;
57609;SDS011;43435;46.186;9.024;2022-12-29T19:29:17;11.93;;;7.47;;
57609;SDS011;43435;46.186;9.024;2022-12-29T20:43:59;22.58;;;11.55;;
57609;SDS011;43435;46.186;9.024;2022-12-29T20:46:25;19.13;;;11.25;;
57609;SDS011;43435;46.186;9.024;2022-12-29T20:48:51;18.33;;;11.05;;
57609;SDS011;43435;46.186;9.024;2022-12-29T20:51:16;22.05;;;11.93;;
57609;SDS011;43435;46.186;9.024;2022-12-29T20:53:42;16.08;;;10.82;;
57609;SDS011;43435;46.186;9.024;2022-12-29T20:56:15;18.48;;;11.02;;
57609;SDS011;43435;46.186;9.024;2022-12-29T20:58:43;19.80;;;11.67;;
57609;SDS011;43435;46.186;9.024;2022-12-29T21:01:11;19.63;;;11.65;;
57609;SDS011;43435;46.186;9.024;2022-12-29T21:03:37;19.45;;;11.32;;
57609;SDS011;43435;46.186;9.024;2022-12-29T21:06:03;20.77;;;11.38;;
57609;SDS011;43435;46.186;9.024;2022-12-29T21:08:29;16.90;;;11.40;;
57609;SDS011;43435;46.186;9.024;2022-12-29T21:10:55;20.17;;;11.88;;
57609;SDS011;43435;46.186;9.024;2022-12-29T21:13:22;24.23;;;13.77;;
57609;SDS011;43435;46.186;9.024;2022-12-29T21:15:47;25.40;;;13.45;;
57609;SDS011;43435;46.186;9.024;2022-12-29T21:18:13;28.58;;;15.10;;
57609;SDS011;43435;46.186;9.024;2022-12-29T21:20:39;32.00;;;17.30;;
57609;SDS011;43435;46.186;9.024;2022-12-29T21:23:04;24.85;;;14.30;;
57609;SDS011;43435;46.186;9.024;2022-12-29T21:25:31;23.60;;;13.23;;
57609;SDS011;43435;46.186;9.024;2022-12-29T21:28:06;20.80;;;12.82;;
57609;SDS011;43435;46.186;9.024;2022-12-29T21:30:36;19.13;;;11.95;;
57609;SDS011;43435;46.186;9.024;2022-12-29T21:33:01;21.30;;;11.45;;
57609;SDS011;43435;46.186;9.024;2022-12-29T21:35:27;21.98;;;11.23;;
57609;SDS011;43435;46.186;9.024;2022-12-29T21:37:52;22.08;;;11.40;;
57609;SDS011;43435;46.186;9.024;2022-12-29T21:40:18;17.13;;;10.43;;
57609;SDS011;43435;46.186;9.024;2022-12-29T21:42:43;20.92;;;11.98;;
57609;SDS011;43435;46.186;9.024;2022-12-29T21:45:09;18.42;;;11.00;;
57609;SDS011;43435;46.186;9.024;2022-12-29T21:47:56;19.52;;;11.70;;
57609;SDS011;43435;46.186;9.024;2022-12-29T21:50:42;16.50;;;10.73;;
57609;SDS011;43435;46.186;9.024;2022-12-29T21:53:31;18.95;;;10.10;;
57609;SDS011;43435;46.186;9.024;2022-12-29T21:58:35;15.10;;;10.77;;
57609;SDS011;43435;46.186;9.024;2022-12-29T22:01:20;22.45;;;11.43;;
57609;SDS011;43435;46.186;9.024;2022-12-29T22:04:05;21.30;;;12.35;;
57609;SDS011;43435;46.186;9.024;2022-12-29T22:06:49;26.92;;;14.07;;
57609;SDS011;43435;46.186;9.024;2022-12-29T22:09:33;19.77;;;12.90;;
57609;SDS011;43435;46.186;9.024;2022-12-29T22:12:18;20.67;;;12.27;;
57609;SDS011;43435;46.186;9.024;2022-12-29T22:15:03;18.92;;;10.52;;
57609;SDS011;43435;46.186;9.024;2022-12-29T22:17:29;15.80;;;9.90;;
57609;SDS011;43435;46.186;9.024;2022-12-29T22:19:54;17.20;;;10.20;;
57609;SDS011;43435;46.186;9.024;2022-12-29T22:22:19;19.80;;;10.68;;
57609;SDS011;43435;46.186;9.024;2022-12-29T22:24:45;19.70;;;11.30;;
57609;SDS011;43435;46.186;9.024;2022-12-29T22:27:10;19.98;;;11.45;;
57609;SDS011;43435;46.186;9.024;2022-12-29T22:29:35;15.35;;;10.00;;
57609;SDS011;43435;46.186;9.024;2022-12-29T22:32:01;16.65;;;9.98;;
57609;SDS011;43435;46.186;9.024;2022-12-29T22:34:26;17.85;;;10.10;;
57609;SDS011;43435;46.186;9.024;2022-12-29T22:36:51;16.67;;;10.30;;
57609;SDS011;43435;46.186;9.024;2022-12-29T22:39:16;15.98;;;10.38;;
57609;SDS011;43435;46.186;9.024;2022-12-29T22:41:42;14.73;;;9.32;;
57609;SDS011;43435;46.186;9.024;2022-12-29T22:44:07;15.50;;;9.27;;
57609;SDS011;43435;46.186;9.024;2022-12-29T22:46:33;15.65;;;9.23;;
57609;SDS011;43435;46.186;9.024;2022-12-29T22:48:58;17.17;;;10.10;;
57609;SDS011;43435;46.186;9.024;2022-12-29T22:51:23;14.45;;;8.32;;
57609;SDS011;43435;46.186;9.024;2022-12-29T22:53:49;17.98;;;8.55;;
57609;SDS011;43435;46.186;9.024;2022-12-29T22:56:15;13.68;;;8.10;;
57609;SDS011;43435;46.186;9.024;2022-12-29T22:58:41;12.85;;;7.85;;
57609;SDS011;43435;46.186;9.024;2022-12-29T23:01:07;10.93;;;7.93;;
57609;SDS011;43435;46.186;9.024;2022-12-29T23:03:33;14.10;;;7.55;;
57609;SDS011;43435;46.186;9.024;2022-12-29T23:05:59;10.38;;;6.75;;
57609;SDS011;43435;46.186;9.024;2022-12-29T23:08:26;13.27;;;6.82;;
57609;SDS011;43435;46.186;9.024;2022-12-29T23:10:53;11.95;;;7.35;;
57609;SDS011;43435;46.186;9.024;2022-12-29T23:13:18;10.77;;;7.00;;
57609;SDS011;43435;46.186;9.024;2022-12-29T23:15:43;12.90;;;7.20;;
57609;SDS011;43435;46.186;9.024;2022-12-29T23:18:10;11.93;;;7.15;;
57609;SDS011;43435;46.186;9.024;2022-12-29T23:20:35;12.27;;;6.65;;
57609;SDS011;43435;46.186;9.024;2022-12-29T23:23:00;10.77;;;7.20;;
57609;SDS011;43435;46.186;9.024;2022-12-29T23:25:25;11.88;;;7.63;;
57609;SDS011;43435;46.186;9.024;2022-12-29T23:27:51;13.50;;;7.53;;
57609;SDS011;43435;46.186;9.024;2022-12-29T23:30:16;13.57;;;7.35;;
57609;SDS011;43435;46.186;9.024;2022-12-29T23:32:41;10.10;;;6.47;;
57609;SDS011;43435;46.186;9.024;2022-12-29T23:35:07;10.90;;;6.40;;
57609;SDS011;43435;46.186;9.024;2022-12-29T23:37:32;11.70;;;6.97;;
57609;SDS011;43435;46.186;9.024;2022-12-29T23:39:58;10.30;;;6.70;;
